Terminal Aerodrome Forecast
Issued by NWS Pittsburgh, PA

Current Version | Previous Version | Text Only | Print | Product List | Glossary Off
Versions: 1 2 3 4 5 6 7 8 9 10 11 12 13 14 15 16 17 18 19 20 21 22 23 24 25 26 27 28 29 30

000
FTUS41 KPBZ 252100 AAA
TAFPIT
TAF AMD
KPIT 252124Z 2521/2624 06005KT 2SM -SN OVC007
     FM252300 03009KT 3/4SM -SN OVC004
     FM261000 05010KT 1SM -SN BR OVC007
     FM262100 01008KT 2SM -SHSN OVC007=

USA.gov is the U.S. government's official web portal to all federal, state and local government web resources and services.